sensor_id;sensor_type;location;lat;lon;timestamp;pressure;altitude;pressure_sealevel;temperature
64916;BMP280;51427;-27.442;153.014;2023-11-21T00:00:16;101847.91;;;24.42
64916;BMP280;51427;-27.442;153.014;2023-11-21T00:02:44;101852.22;;;24.11
64916;BMP280;51427;-27.442;153.014;2023-11-21T00:05:13;101846.00;;;24.44
64916;BMP280;51427;-27.442;153.014;2023-11-21T00:07:43;101853.28;;;24.28
64916;BMP280;51427;-27.442;153.014;2023-11-21T00:10:11;101845.06;;;24.45
64916;BMP280;51427;-27.442;153.014;2023-11-21T00:12:40;101847.75;;;24.64
64916;BMP280;51427;-27.442;153.014;2023-11-21T00:15:09;101848.38;;;25.16
64916;BMP280;51427;-27.442;153.014;2023-11-21T00:17:39;101841.38;;;25.27
64916;BMP280;51427;-27.442;153.014;2023-11-21T00:20:07;101842.28;;;25.07
64916;BMP280;51427;-27.442;153.014;2023-11-21T00:22:35;101835.81;;;25.13
64916;BMP280;51427;-27.442;153.014;2023-11-21T00:25:03;101830.47;;;25.25
64916;BMP280;51427;-27.442;153.014;2023-11-21T00:27:30;101840.72;;;24.96
64916;BMP280;51427;-27.442;153.014;2023-11-21T00:29:59;101820.97;;;25.07
64916;BMP280;51427;-27.442;153.014;2023-11-21T00:32:26;101826.50;;;24.82
64916;BMP280;51427;-27.442;153.014;2023-11-21T00:34:53;101828.50;;;24.69
64916;BMP280;51427;-27.442;153.014;2023-11-21T00:37:21;101822.97;;;24.44
64916;BMP280;51427;-27.442;153.014;2023-11-21T00:39:48;101817.44;;;24.39
64916;BMP280;51427;-27.442;153.014;2023-11-21T00:42:15;101813.50;;;24.35
64916;BMP280;51427;-27.442;153.014;2023-11-21T00:44:42;101817.56;;;24.38
64916;BMP280;51427;-27.442;153.014;2023-11-21T00:47:09;101811.63;;;24.37
64916;BMP280;51427;-27.442;153.014;2023-11-21T00:49:37;101812.16;;;24.31
64916;BMP280;51427;-27.442;153.014;2023-11-21T00:52:06;101806.22;;;24.60
64916;BMP280;51427;-27.442;153.014;2023-11-21T00:54:33;101811.13;;;24.43
64916;BMP280;51427;-27.442;153.014;2023-11-21T00:57:01;101805.31;;;25.01
64916;BMP280;51427;-27.442;153.014;2023-11-21T00:59:28;101798.78;;;25.36
64916;BMP280;51427;-27.442;153.014;2023-11-21T01:01:55;101805.31;;;25.96
64916;BMP280;51427;-27.442;153.014;2023-11-21T01:04:22;101792.19;;;25.90
64916;BMP280;51427;-27.442;153.014;2023-11-21T01:06:49;101789.47;;;26.19
64916;BMP280;51427;-27.442;153.014;2023-11-21T01:09:17;101791.25;;;25.91
64916;BMP280;51427;-27.442;153.014;2023-11-21T01:11:44;101784.38;;;25.44
64916;BMP280;51427;-27.442;153.014;2023-11-21T01:14:12;101781.00;;;25.34
64916;BMP280;51427;-27.442;153.014;2023-11-21T01:16:39;101786.16;;;24.95
64916;BMP280;51427;-27.442;153.014;2023-11-21T01:19:07;101771.16;;;25.39
64916;BMP280;51427;-27.442;153.014;2023-11-21T01:21:35;101777.31;;;25.18
64916;BMP280;51427;-27.442;153.014;2023-11-21T01:24:03;101774.25;;;24.85
64916;BMP280;51427;-27.442;153.014;2023-11-21T01:26:33;101767.88;;;26.03
64916;BMP280;51427;-27.442;153.014;2023-11-21T01:29:01;101772.78;;;25.40
64916;BMP280;51427;-27.442;153.014;2023-11-21T01:31:28;101772.34;;;25.45
64916;BMP280;51427;-27.442;153.014;2023-11-21T01:33:56;101757.88;;;26.09
64916;BMP280;51427;-27.442;153.014;2023-11-21T01:36:29;101771.22;;;26.13
64916;BMP280;51427;-27.442;153.014;2023-11-21T01:38:58;101773.16;;;25.36
64916;BMP280;51427;-27.442;153.014;2023-11-21T01:41:34;101760.47;;;25.25
64916;BMP280;51427;-27.442;153.014;2023-11-21T01:44:01;101753.06;;;25.50
64916;BMP280;51427;-27.442;153.014;2023-11-21T01:46:29;101753.06;;;25.31
64916;BMP280;51427;-27.442;153.014;2023-11-21T01:48:56;101749.31;;;24.87
64916;BMP280;51427;-27.442;153.014;2023-11-21T01:51:24;101748.31;;;25.93
64916;BMP280;51427;-27.442;153.014;2023-11-21T01:53:52;101743.34;;;25.44
64916;BMP280;51427;-27.442;153.014;2023-11-21T01:56:20;101752.63;;;24.98
64916;BMP280;51427;-27.442;153.014;2023-11-21T01:58:48;101754.13;;;25.48
64916;BMP280;51427;-27.442;153.014;2023-11-21T02:01:15;101736.06;;;25.87
64916;BMP280;51427;-27.442;153.014;2023-11-21T02:03:44;101723.66;;;25.82
64916;BMP280;51427;-27.442;153.014;2023-11-21T02:06:12;101724.63;;;25.34
64916;BMP280;51427;-27.442;153.014;2023-11-21T02:08:39;101732.28;;;25.53
64916;BMP280;51427;-27.442;153.014;2023-11-21T02:11:08;101737.06;;;26.12
64916;BMP280;51427;-27.442;153.014;2023-11-21T02:13:39;101734.31;;;25.50
64916;BMP280;51427;-27.442;153.014;2023-11-21T02:16:12;101728.25;;;25.41
64916;BMP280;51427;-27.442;153.014;2023-11-21T02:18:40;101730.94;;;25.58
64916;BMP280;51427;-27.442;153.014;2023-11-21T02:21:08;101713.78;;;25.97
64916;BMP280;51427;-27.442;153.014;2023-11-21T02:23:36;101722.44;;;25.39
64916;BMP280;51427;-27.442;153.014;2023-11-21T02:26:05;101715.03;;;25.46
64916;BMP280;51427;-27.442;153.014;2023-11-21T02:28:32;101711.78;;;25.53
64916;BMP280;51427;-27.442;153.014;2023-11-21T02:30:59;101725.81;;;25.58
64916;BMP280;51427;-27.442;153.014;2023-11-21T02:33:29;101714.50;;;25.51
64916;BMP280;51427;-27.442;153.014;2023-11-21T02:35:56;101703.16;;;25.35
64916;BMP280;51427;-27.442;153.014;2023-11-21T02:38:23;101709.75;;;25.47
64916;BMP280;51427;-27.442;153.014;2023-11-21T02:40:50;101694.13;;;25.69
64916;BMP280;51427;-27.442;153.014;2023-11-21T02:43:18;101714.75;;;25.20
64916;BMP280;51427;-27.442;153.014;2023-11-21T02:45:45;101705.84;;;25.24
64916;BMP280;51427;-27.442;153.014;2023-11-21T02:48:12;101703.88;;;24.89
64916;BMP280;51427;-27.442;153.014;2023-11-21T02:50:39;101694.88;;;24.85
64916;BMP280;51427;-27.442;153.014;2023-11-21T02:53:06;101698.03;;;25.35
64916;BMP280;51427;-27.442;153.014;2023-11-21T02:55:33;101688.25;;;24.92
64916;BMP280;51427;-27.442;153.014;2023-11-21T02:58:01;101689.06;;;24.34
64916;BMP280;51427;-27.442;153.014;2023-11-21T03:00:30;101700.56;;;24.49
64916;BMP280;51427;-27.442;153.014;2023-11-21T03:02:57;101704.22;;;24.26
64916;BMP280;51427;-27.442;153.014;2023-11-21T03:05:24;101698.75;;;24.11
64916;BMP280;51427;-27.442;153.014;2023-11-21T03:07:51;101705.03;;;24.27
64916;BMP280;51427;-27.442;153.014;2023-11-21T03:10:19;101718.06;;;24.44
64916;BMP280;51427;-27.442;153.014;2023-11-21T03:12:46;101701.84;;;24.34
64916;BMP280;51427;-27.442;153.014;2023-11-21T03:15:13;101716.81;;;23.89
64916;BMP280;51427;-27.442;153.014;2023-11-21T03:17:41;101701.59;;;23.87
64916;BMP280;51427;-27.442;153.014;2023-11-21T03:20:08;101702.91;;;23.82
64916;BMP280;51427;-27.442;153.014;2023-11-21T03:22:39;101687.56;;;23.82
64916;BMP280;51427;-27.442;153.014;2023-11-21T03:25:07;101680.63;;;23.93
64916;BMP280;51427;-27.442;153.014;2023-11-21T03:27:38;101693.44;;;23.73
64916;BMP280;51427;-27.442;153.014;2023-11-21T03:30:07;101691.44;;;23.76
64916;BMP280;51427;-27.442;153.014;2023-11-21T03:32:35;101691.41;;;23.56
64916;BMP280;51427;-27.442;153.014;2023-11-21T03:35:03;101702.88;;;23.41
64916;BMP280;51427;-27.442;153.014;2023-11-21T03:37:30;101699.59;;;23.39
64916;BMP280;51427;-27.442;153.014;2023-11-21T03:40:00;101705.59;;;23.29
64916;BMP280;51427;-27.442;153.014;2023-11-21T03:42:30;101707.78;;;23.33
64916;BMP280;51427;-27.442;153.014;2023-11-21T03:44:59;101706.50;;;23.28
64916;BMP280;51427;-27.442;153.014;2023-11-21T03:47:30;101702.19;;;23.28
64916;BMP280;51427;-27.442;153.014;2023-11-21T03:49:57;101696.47;;;23.16
64916;BMP280;51427;-27.442;153.014;2023-11-21T03:52:25;101695.09;;;23.12
64916;BMP280;51427;-27.442;153.014;2023-11-21T03:54:54;101704.63;;;22.88
64916;BMP280;51427;-27.442;153.014;2023-11-21T03:57:22;101705.19;;;23.02
64916;BMP280;51427;-27.442;153.014;2023-11-21T03:59:49;101686.28;;;23.05
64916;BMP280;51427;-27.442;153.014;2023-11-21T04:02:17;101689.16;;;23.11
64916;BMP280;51427;-27.442;153.014;2023-11-21T04:04:44;101678.66;;;22.83
64916;BMP280;51427;-27.442;153.014;2023-11-21T04:07:12;101673.19;;;22.87
64916;BMP280;51427;-27.442;153.014;2023-11-21T04:09:41;101666.81;;;22.82
64916;BMP280;51427;-27.442;153.014;2023-11-21T04:12:09;101664.16;;;22.73
64916;BMP280;51427;-27.442;153.014;2023-11-21T04:14:36;101671.25;;;22.69
64916;BMP280;51427;-27.442;153.014;2023-11-21T04:17:04;101677.53;;;22.65
64916;BMP280;51427;-27.442;153.014;2023-11-21T04:19:32;101696.91;;;22.57
64916;BMP280;51427;-27.442;153.014;2023-11-21T04:21:59;101690.03;;;22.57
64916;BMP280;51427;-27.442;153.014;2023-11-21T04:24:27;101689.47;;;22.65
64916;BMP280;51427;-27.442;153.014;2023-11-21T04:26:54;101683.31;;;22.67
64916;BMP280;51427;-27.442;153.014;2023-11-21T04:29:22;101673.31;;;22.86
64916;BMP280;51427;-27.442;153.014;2023-11-21T04:31:49;101669.63;;;22.79
64916;BMP280;51427;-27.442;153.014;2023-11-21T04:34:17;101661.84;;;22.70
64916;BMP280;51427;-27.442;153.014;2023-11-21T04:36:45;101670.31;;;22.81
64916;BMP280;51427;-27.442;153.014;2023-11-21T04:39:13;101671.91;;;22.82
64916;BMP280;51427;-27.442;153.014;2023-11-21T04:41:40;101671.78;;;22.83
64916;BMP280;51427;-27.442;153.014;2023-11-21T04:44:08;101665.41;;;22.89
64916;BMP280;51427;-27.442;153.014;2023-11-21T04:46:35;101662.19;;;22.98
64916;BMP280;51427;-27.442;153.014;2023-11-21T04:49:03;101662.13;;;23.09
64916;BMP280;51427;-27.442;153.014;2023-11-21T04:51:31;101660.31;;;23.00
64916;BMP280;51427;-27.442;153.014;2023-11-21T04:53:59;101650.69;;;22.92
64916;BMP280;51427;-27.442;153.014;2023-11-21T04:56:26;101638.81;;;23.02
64916;BMP280;51427;-27.442;153.014;2023-11-21T04:58:54;101640.81;;;22.99
64916;BMP280;51427;-27.442;153.014;2023-11-21T05:01:22;101640.31;;;23.05
64916;BMP280;51427;-27.442;153.014;2023-11-21T05:03:49;101637.22;;;22.90
64916;BMP280;51427;-27.442;153.014;2023-11-21T05:06:17;101636.72;;;22.65
64916;BMP280;51427;-27.442;153.014;2023-11-21T05:08:44;101627.72;;;22.81
64916;BMP280;51427;-27.442;153.014;2023-11-21T05:11:12;101640.00;;;22.87
64916;BMP280;51427;-27.442;153.014;2023-11-21T05:13:40;101638.53;;;22.74
64916;BMP280;51427;-27.442;153.014;2023-11-21T05:16:08;101630.44;;;22.58
64916;BMP280;51427;-27.442;153.014;2023-11-21T05:18:35;101623.31;;;22.73
64916;BMP280;51427;-27.442;153.014;2023-11-21T05:21:03;101620.34;;;22.68
64916;BMP280;51427;-27.442;153.014;2023-11-21T05:23:31;101627.97;;;22.78
64916;BMP280;51427;-27.442;153.014;2023-11-21T05:26:00;101614.16;;;22.81
64916;BMP280;51427;-27.442;153.014;2023-11-21T05:28:28;101602.50;;;22.57
64916;BMP280;51427;-27.442;153.014;2023-11-21T05:30:55;101601.44;;;22.70
64916;BMP280;51427;-27.442;153.014;2023-11-21T05:33:23;101604.19;;;22.78
64916;BMP280;51427;-27.442;153.014;2023-11-21T05:35:52;101599.75;;;22.80
64916;BMP280;51427;-27.442;153.014;2023-11-21T05:38:19;101602.28;;;22.91
64916;BMP280;51427;-27.442;153.014;2023-11-21T05:40:48;101599.84;;;23.20
64916;BMP280;51427;-27.442;153.014;2023-11-21T05:43:16;101600.75;;;23.30
64916;BMP280;51427;-27.442;153.014;2023-11-21T05:45:44;101591.06;;;23.54
64916;BMP280;51427;-27.442;153.014;2023-11-21T05:48:12;101588.66;;;23.73
64916;BMP280;51427;-27.442;153.014;2023-11-21T05:50:39;101597.19;;;23.42
64916;BMP280;51427;-27.442;153.014;2023-11-21T05:53:07;101592.38;;;23.28
64916;BMP280;51427;-27.442;153.014;2023-11-21T05:55:36;101587.31;;;23.18
64916;BMP280;51427;-27.442;153.014;2023-11-21T05:58:06;101588.97;;;23.19
64916;BMP280;51427;-27.442;153.014;2023-11-21T06:00:34;101600.94;;;23.18
64916;BMP280;51427;-27.442;153.014;2023-11-21T06:03:03;101599.66;;;23.13
64916;BMP280;51427;-27.442;153.014;2023-11-21T06:05:33;101594.63;;;23.22
64916;BMP280;51427;-27.442;153.014;2023-11-21T06:08:00;101592.38;;;23.28
64916;BMP280;51427;-27.442;153.014;2023-11-21T06:10:28;101581.00;;;23.32
64916;BMP280;51427;-27.442;153.014;2023-11-21T06:12:56;101588.47;;;23.24
64916;BMP280;51427;-27.442;153.014;2023-11-21T06:15:24;101594.06;;;23.19
64916;BMP280;51427;-27.442;153.014;2023-11-21T06:17:55;101591.94;;;23.23
64916;BMP280;51427;-27.442;153.014;2023-11-21T06:20:23;101597.38;;;23.30
64916;BMP280;51427;-27.442;153.014;2023-11-21T06:22:51;101587.72;;;23.33
64916;BMP280;51427;-27.442;153.014;2023-11-21T06:25:19;101601.66;;;23.29
64916;BMP280;51427;-27.442;153.014;2023-11-21T06:27:48;101597.72;;;23.25
64916;BMP280;51427;-27.442;153.014;2023-11-21T06:30:16;101601.91;;;23.26
64916;BMP280;51427;-27.442;153.014;2023-11-21T06:32:45;101599.78;;;23.31
64916;BMP280;51427;-27.442;153.014;2023-11-21T06:35:13;101601.44;;;23.32
64916;BMP280;51427;-27.442;153.014;2023-11-21T06:37:42;101603.31;;;23.30
64916;BMP280;51427;-27.442;153.014;2023-11-21T06:40:14;101604.66;;;23.34
64916;BMP280;51427;-27.442;153.014;2023-11-21T06:42:42;101603.97;;;23.32
64916;BMP280;51427;-27.442;153.014;2023-11-21T06:45:11;101605.16;;;23.28
64916;BMP280;51427;-27.442;153.014;2023-11-21T06:47:39;101618.75;;;23.29
64916;BMP280;51427;-27.442;153.014;2023-11-21T06:50:06;101620.53;;;23.18
64916;BMP280;51427;-27.442;153.014;2023-11-21T06:52:34;101618.72;;;23.09
64916;BMP280;51427;-27.442;153.014;2023-11-21T06:55:02;101623.88;;;22.98
64916;BMP280;51427;-27.442;153.014;2023-11-21T06:57:30;101619.22;;;23.03
64916;BMP280;51427;-27.442;153.014;2023-11-21T06:59:59;101622.25;;;22.97
64916;BMP280;51427;-27.442;153.014;2023-11-21T07:02:27;101624.34;;;22.92
64916;BMP280;51427;-27.442;153.014;2023-11-21T07:04:55;101629.22;;;22.84
64916;BMP280;51427;-27.442;153.014;2023-11-21T07:07:23;101630.50;;;22.78
64916;BMP280;51427;-27.442;153.014;2023-11-21T07:09:50;101636.44;;;22.79
64916;BMP280;51427;-27.442;153.014;2023-11-21T07:12:18;101635.72;;;22.77
64916;BMP280;51427;-27.442;153.014;2023-11-21T07:14:46;101652.00;;;22.76
64916;BMP280;51427;-27.442;153.014;2023-11-21T07:17:14;101656.16;;;22.77
64916;BMP280;51427;-27.442;153.014;2023-11-21T07:19:41;101657.91;;;22.76
64916;BMP280;51427;-27.442;153.014;2023-11-21T07:22:09;101658.13;;;22.73
64916;BMP280;51427;-27.442;153.014;2023-11-21T07:24:37;101672.19;;;22.79
64916;BMP280;51427;-27.442;153.014;2023-11-21T07:27:05;101671.09;;;22.81
64916;BMP280;51427;-27.442;153.014;2023-11-21T07:29:32;101676.31;;;22.80
64916;BMP280;51427;-27.442;153.014;2023-11-21T07:32:01;101679.00;;;22.78
64916;BMP280;51427;-27.442;153.014;2023-11-21T07:34:28;101680.66;;;22.69
64916;BMP280;51427;-27.442;153.014;2023-11-21T07:36:56;101679.47;;;22.73
64916;BMP280;51427;-27.442;153.014;2023-11-21T07:39:27;101683.53;;;22.75
64916;BMP280;51427;-27.442;153.014;2023-11-21T07:41:55;101687.84;;;22.64
64916;BMP280;51427;-27.442;153.014;2023-11-21T07:44:24;101697.00;;;22.66
64916;BMP280;51427;-27.442;153.014;2023-11-21T07:46:53;101703.75;;;22.56
64916;BMP280;51427;-27.442;153.014;2023-11-21T07:49:24;101713.00;;;22.57
64916;BMP280;51427;-27.442;153.014;2023-11-21T07:51:53;101711.06;;;22.50
64916;BMP280;51427;-27.442;153.014;2023-11-21T07:54:20;101720.44;;;22.49
64916;BMP280;51427;-27.442;153.014;2023-11-21T07:56:48;101713.72;;;22.48
64916;BMP280;51427;-27.442;153.014;2023-11-21T07:59:16;101723.69;;;22.51
64916;BMP280;51427;-27.442;153.014;2023-11-21T08:01:44;101725.31;;;22.52
64916;BMP280;51427;-27.442;153.014;2023-11-21T08:04:12;101731.13;;;22.54
64916;BMP280;51427;-27.442;153.014;2023-11-21T08:06:40;101730.88;;;22.57
64916;BMP280;51427;-27.442;153.014;2023-11-21T08:09:08;101729.59;;;22.52
64916;BMP280;51427;-27.442;153.014;2023-11-21T08:11:36;101729.50;;;22.53
64916;BMP280;51427;-27.442;153.014;2023-11-21T08:14:06;101730.53;;;22.51
64916;BMP280;51427;-27.442;153.014;2023-11-21T08:16:37;101731.13;;;22.54
64916;BMP280;51427;-27.442;153.014;2023-11-21T08:19:05;101737.47;;;22.49
64916;BMP280;51427;-27.442;153.014;2023-11-21T08:21:32;101733.19;;;22.49
64916;BMP280;51427;-27.442;153.014;2023-11-21T08:24:00;101746.31;;;22.45
64916;BMP280;51427;-27.442;153.014;2023-11-21T08:26:29;101745.72;;;22.52
64916;BMP280;51427;-27.442;153.014;2023-11-21T08:28:57;101751.03;;;22.49
64916;BMP280;51427;-27.442;153.014;2023-11-21T08:31:26;101755.69;;;22.44
64916;BMP280;51427;-27.442;153.014;2023-11-21T08:33:54;101743.63;;;22.35
64916;BMP280;51427;-27.442;153.014;2023-11-21T08:36:22;101756.38;;;22.35
64916;BMP280;51427;-27.442;153.014;2023-11-21T08:38:52;101755.22;;;22.39
64916;BMP280;51427;-27.442;153.014;2023-11-21T08:41:19;101758.69;;;22.38
64916;BMP280;51427;-27.442;153.014;2023-11-21T08:43:53;101763.44;;;22.32
64916;BMP280;51427;-27.442;153.014;2023-11-21T08:46:22;101766.31;;;22.27
64916;BMP280;51427;-27.442;153.014;2023-11-21T08:48:49;101767.75;;;22.31
64916;BMP280;51427;-27.442;153.014;2023-11-21T08:51:19;101770.97;;;22.33
64916;BMP280;51427;-27.442;153.014;2023-11-21T08:53:47;101766.72;;;22.34
64916;BMP280;51427;-27.442;153.014;2023-11-21T08:56:14;101762.63;;;22.31
64916;BMP280;51427;-27.442;153.014;2023-11-21T08:58:42;101755.44;;;22.26
64916;BMP280;51427;-27.442;153.014;2023-11-21T09:01:10;101756.13;;;22.27
64916;BMP280;51427;-27.442;153.014;2023-11-21T09:03:38;101764.38;;;22.20
64916;BMP280;51427;-27.442;153.014;2023-11-21T09:06:07;101765.16;;;22.21
64916;BMP280;51427;-27.442;153.014;2023-11-21T09:08:36;101771.91;;;22.22
64916;BMP280;51427;-27.442;153.014;2023-11-21T09:11:04;101779.44;;;22.23
64916;BMP280;51427;-27.442;153.014;2023-11-21T09:13:32;101773.63;;;22.21
64916;BMP280;51427;-27.442;153.014;2023-11-21T09:16:00;101769.56;;;22.19
64916;BMP280;51427;-27.442;153.014;2023-11-21T09:18:27;101777.13;;;22.20
64916;BMP280;51427;-27.442;153.014;2023-11-21T09:20:55;101768.25;;;22.13
64916;BMP280;51427;-27.442;153.014;2023-11-21T09:23:23;101779.03;;;22.17
64916;BMP280;51427;-27.442;153.014;2023-11-21T09:25:51;101781.09;;;22.12
64916;BMP280;51427;-27.442;153.014;2023-11-21T09:28:21;101788.31;;;22.18
64916;BMP280;51427;-27.442;153.014;2023-11-21T09:30:49;101790.84;;;22.18
64916;BMP280;51427;-27.442;153.014;2023-11-21T09:33:17;101792.06;;;22.25
64916;BMP280;51427;-27.442;153.014;2023-11-21T09:35:45;101787.31;;;22.20
64916;BMP280;51427;-27.442;153.014;2023-11-21T09:38:12;101785.75;;;22.18
64916;BMP280;51427;-27.442;153.014;2023-11-21T09:40:41;101793.69;;;22.26
64916;BMP280;51427;-27.442;153.014;2023-11-21T09:43:17;101799.38;;;22.29
64916;BMP280;51427;-27.442;153.014;2023-11-21T09:45:54;101795.91;;;22.30
64916;BMP280;51427;-27.442;153.014;2023-11-21T09:48:26;101795.78;;;22.31
64916;BMP280;51427;-27.442;153.014;2023-11-21T09:50:54;101789.78;;;22.32
64916;BMP280;51427;-27.442;153.014;2023-11-21T09:53:22;101796.38;;;22.35
64916;BMP280;51427;-27.442;153.014;2023-11-21T09:55:54;101791.63;;;22.41
64916;BMP280;51427;-27.442;153.014;2023-11-21T09:58:23;101793.13;;;22.44
64916;BMP280;51427;-27.442;153.014;2023-11-21T10:00:55;101794.78;;;22.45
64916;BMP280;51427;-27.442;153.014;2023-11-21T10:03:23;101800.69;;;22.45
64916;BMP280;51427;-27.442;153.014;2023-11-21T10:05:51;101786.53;;;22.52
64916;BMP280;51427;-27.442;153.014;2023-11-21T10:08:22;101790.59;;;22.55
64916;BMP280;51427;-27.442;153.014;2023-11-21T10:10:53;101806.03;;;22.64
64916;BMP280;51427;-27.442;153.014;2023-11-21T10:13:21;101810.22;;;22.65
64916;BMP280;51427;-27.442;153.014;2023-11-21T10:15:52;101807.19;;;22.71
64916;BMP280;51427;-27.442;153.014;2023-11-21T10:18:20;101801.03;;;22.73
64916;BMP280;51427;-27.442;153.014;2023-11-21T10:20:51;101796.28;;;22.80
64916;BMP280;51427;-27.442;153.014;2023-11-21T10:23:22;101796.28;;;22.80
64916;BMP280;51427;-27.442;153.014;2023-11-21T10:25:53;101803.25;;;22.89
64916;BMP280;51427;-27.442;153.014;2023-11-21T10:28:21;101801.28;;;22.92
64916;BMP280;51427;-27.442;153.014;2023-11-21T10:30:49;101792.38;;;22.98
64916;BMP280;51427;-27.442;153.014;2023-11-21T10:33:17;101797.47;;;22.98
64916;BMP280;51427;-27.442;153.014;2023-11-21T10:35:48;101795.16;;;22.95
64916;BMP280;51427;-27.442;153.014;2023-11-21T10:38:24;101792.00;;;23.02
64916;BMP280;51427;-27.442;153.014;2023-11-21T10:40:54;101796.88;;;23.05
64916;BMP280;51427;-27.442;153.014;2023-11-21T10:43:25;101791.88;;;23.04
64916;BMP280;51427;-27.442;153.014;2023-11-21T10:45:54;101782.38;;;23.06
64916;BMP280;51427;-27.442;153.014;2023-11-21T10:48:25;101787.47;;;23.06
64916;BMP280;51427;-27.442;153.014;2023-11-21T10:50:53;101785.16;;;23.03
64916;BMP280;51427;-27.442;153.014;2023-11-21T10:53:23;101785.16;;;23.14
64916;BMP280;51427;-27.442;153.014;2023-11-21T10:55:54;101794.06;;;23.08
64916;BMP280;51427;-27.442;153.014;2023-11-21T10:58:29;101792.13;;;23.12
64916;BMP280;51427;-27.442;153.014;2023-11-21T11:01:00;101792.25;;;23.10
64916;BMP280;51427;-27.442;153.014;2023-11-21T11:03:29;101795.03;;;23.07
64916;BMP280;51427;-27.442;153.014;2023-11-21T11:05:57;101787.94;;;23.00
64916;BMP280;51427;-27.442;153.014;2023-11-21T11:08:25;101784.59;;;22.99
64916;BMP280;51427;-27.442;153.014;2023-11-21T11:10:54;101791.41;;;23.10
64916;BMP280;51427;-27.442;153.014;2023-11-21T11:13:22;101797.69;;;23.06
64916;BMP280;51427;-27.442;153.014;2023-11-21T11:15:54;101800.81;;;23.09
64916;BMP280;51427;-27.442;153.014;2023-11-21T11:18:26;101797.34;;;23.10
64916;BMP280;51427;-27.442;153.014;2023-11-21T11:20:59;101794.69;;;23.01
64916;BMP280;51427;-27.442;153.014;2023-11-21T11:23:46;101801.16;;;23.05
64916;BMP280;51427;-27.442;153.014;2023-11-21T11:34:34;101805.13;;;22.98
64916;BMP280;51427;-27.442;153.014;2023-11-21T11:37:05;101811.81;;;22.88
64916;BMP280;51427;-27.442;153.014;2023-11-21T11:39:37;101817.31;;;22.94
64916;BMP280;51427;-27.442;153.014;2023-11-21T11:42:12;101816.03;;;23.00
64916;BMP280;51427;-27.442;153.014;2023-11-21T11:47:36;101816.94;;;22.99
64916;BMP280;51427;-27.442;153.014;2023-11-21T11:50:07;101814.75;;;22.94
64916;BMP280;51427;-27.442;153.014;2023-11-21T11:52:53;101813.94;;;22.94
64916;BMP280;51427;-27.442;153.014;2023-11-21T11:55:22;101819.06;;;22.94
64916;BMP280;51427;-27.442;153.014;2023-11-21T11:57:54;101807.81;;;22.96
64916;BMP280;51427;-27.442;153.014;2023-11-21T12:03:01;101804.19;;;22.99
64916;BMP280;51427;-27.442;153.014;2023-11-21T12:05:33;101797.94;;;23.03
64916;BMP280;51427;-27.442;153.014;2023-11-21T12:08:12;101797.47;;;22.98
64916;BMP280;51427;-27.442;153.014;2023-11-21T12:10:43;101791.78;;;22.94
64916;BMP280;51427;-27.442;153.014;2023-11-21T12:13:11;101795.63;;;23.00
64916;BMP280;51427;-27.442;153.014;2023-11-21T12:15:41;101796.75;;;22.96
64916;BMP280;51427;-27.442;153.014;2023-11-21T12:18:09;101783.06;;;22.97
64916;BMP280;51427;-27.442;153.014;2023-11-21T12:20:37;101784.19;;;23.15
64916;BMP280;51427;-27.442;153.014;2023-11-21T12:23:09;101785.63;;;23.08
64916;BMP280;51427;-27.442;153.014;2023-11-21T12:25:37;101781.69;;;22.93
64916;BMP280;51427;-27.442;153.014;2023-11-21T12:28:06;101787.81;;;22.79
64916;BMP280;51427;-27.442;153.014;2023-11-21T12:30:35;101774.13;;;22.70
64916;BMP280;51427;-27.442;153.014;2023-11-21T12:33:04;101788.84;;;22.55
64916;BMP280;51427;-27.442;153.014;2023-11-21T12:35:38;101785.59;;;22.42
64916;BMP280;51427;-27.442;153.014;2023-11-21T12:38:08;101772.63;;;22.34
64916;BMP280;51427;-27.442;153.014;2023-11-21T12:40:39;101776.06;;;22.33
64916;BMP280;51427;-27.442;153.014;2023-11-21T12:43:07;101775.16;;;22.24
64916;BMP280;51427;-27.442;153.014;2023-11-21T12:45:38;101778.28;;;22.27
64916;BMP280;51427;-27.442;153.014;2023-11-21T12:48:06;101776.38;;;22.18
64916;BMP280;51427;-27.442;153.014;2023-11-21T12:50:35;101768.72;;;22.18
64916;BMP280;51427;-27.442;153.014;2023-11-21T12:53:08;101770.00;;;22.13
64916;BMP280;51427;-27.442;153.014;2023-11-21T12:55:37;101772.31;;;22.16
64916;BMP280;51427;-27.442;153.014;2023-11-21T12:58:09;101776.94;;;22.11
64916;BMP280;51427;-27.442;153.014;2023-11-21T13:00:47;101776.47;;;22.17
64916;BMP280;51427;-27.442;153.014;2023-11-21T13:03:18;101772.03;;;22.20
64916;BMP280;51427;-27.442;153.014;2023-11-21T13:05:53;101779.97;;;22.16
64916;BMP280;51427;-27.442;153.014;2023-11-21T13:08:24;101775.91;;;22.13
64916;BMP280;51427;-27.442;153.014;2023-11-21T13:10:56;101775.91;;;22.13
64916;BMP280;51427;-27.442;153.014;2023-11-21T13:13:25;101772.31;;;22.16
64916;BMP280;51427;-27.442;153.014;2023-11-21T13:16:01;101768.69;;;22.07
64916;BMP280;51427;-27.442;153.014;2023-11-21T13:18:32;101768.91;;;22.04
64916;BMP280;51427;-27.442;153.014;2023-11-21T13:21:02;101765.13;;;22.10
64916;BMP280;51427;-27.442;153.014;2023-11-21T13:23:36;101769.06;;;22.14
64916;BMP280;51427;-27.442;153.014;2023-11-21T13:26:04;101771.25;;;22.18
64916;BMP280;51427;-27.442;153.014;2023-11-21T13:28:33;101773.00;;;22.18
64916;BMP280;51427;-27.442;153.014;2023-11-21T13:31:02;101770.28;;;22.21
64916;BMP280;51427;-27.442;153.014;2023-11-21T13:33:36;101765.16;;;22.21
64916;BMP280;51427;-27.442;153.014;2023-11-21T13:36:09;101770.16;;;22.22
64916;BMP280;51427;-27.442;153.014;2023-11-21T13:38:40;101780.13;;;22.25
64916;BMP280;51427;-27.442;153.014;2023-11-21T13:41:10;101773.63;;;22.32
64916;BMP280;51427;-27.442;153.014;2023-11-21T13:43:40;101773.97;;;22.27